sensor_id;sensor_type;location;lat;lon;timestamp;temperature;humidity
57030;DHT22;42920;45.306;20.448;2023-04-01T00:00:12;384.40;2329.60
57030;DHT22;42920;45.306;20.448;2023-04-01T00:02:38;384.40;2329.60
57030;DHT22;42920;45.306;20.448;2023-04-01T00:05:04;384.20;2329.60
57030;DHT22;42920;45.306;20.448;2023-04-01T00:07:31;384.20;2329.60
57030;DHT22;42920;45.306;20.448;2023-04-01T00:09:57;384.40;2329.60
57030;DHT22;42920;45.306;20.448;2023-04-01T00:12:22;384.00;2329.60
57030;DHT22;42920;45.306;20.448;2023-04-01T00:14:51;384.10;2329.60
57030;DHT22;42920;45.306;20.448;2023-04-01T00:17:17;384.10;2329.60
57030;DHT22;42920;45.306;20.448;2023-04-01T00:19:42;384.00;2329.60
57030;DHT22;42920;45.306;20.448;2023-04-01T00:22:09;384.00;2329.60
57030;DHT22;42920;45.306;20.448;2023-04-01T00:24:37;384.10;2329.60
57030;DHT22;42920;45.306;20.448;2023-04-01T00:27:03;384.00;2329.60
57030;DHT22;42920;45.306;20.448;2023-04-01T00:29:29;384.20;2329.60
57030;DHT22;42920;45.306;20.448;2023-04-01T00:31:57;384.10;2329.60
57030;DHT22;42920;45.306;20.448;2023-04-01T00:34:23;384.20;2329.60
57030;DHT22;42920;45.306;20.448;2023-04-01T00:36:52;384.20;2329.60
57030;DHT22;42920;45.306;20.448;2023-04-01T00:39:19;384.10;2329.60
57030;DHT22;42920;45.306;20.448;2023-04-01T00:41:45;384.10;2329.60
57030;DHT22;42920;45.306;20.448;2023-04-01T00:44:20;384.00;2329.60
57030;DHT22;42920;45.306;20.448;2023-04-01T00:46:46;384.00;2329.60
57030;DHT22;42920;45.306;20.448;2023-04-01T00:49:12;384.10;2329.60
57030;DHT22;42920;45.306;20.448;2023-04-01T00:51:39;384.20;2329.60
57030;DHT22;42920;45.306;20.448;2023-04-01T00:54:07;384.10;2329.60
57030;DHT22;42920;45.306;20.448;2023-04-01T00:56:49;384.20;2329.60
57030;DHT22;42920;45.306;20.448;2023-04-01T00:59:31;384.30;2329.60
57030;DHT22;42920;45.306;20.448;2023-04-01T01:02:00;384.30;2329.60
57030;DHT22;42920;45.306;20.448;2023-04-01T01:04:29;384.30;2329.60
57030;DHT22;42920;45.306;20.448;2023-04-01T01:10:18;384.30;2329.60
57030;DHT22;42920;45.306;20.448;2023-04-01T01:37:31;384.20;2329.60
57030;DHT22;42920;45.306;20.448;2023-04-01T01:40:07;384.10;2329.60
57030;DHT22;42920;45.306;20.448;2023-04-01T01:42:38;384.10;2329.60
57030;DHT22;42920;45.306;20.448;2023-04-01T01:45:06;384.10;2329.60
57030;DHT22;42920;45.306;20.448;2023-04-01T01:47:33;384.10;2329.60
57030;DHT22;42920;45.306;20.448;2023-04-01T01:50:00;384.10;2329.60
57030;DHT22;42920;45.306;20.448;2023-04-01T01:52:30;384.10;2329.60
57030;DHT22;42920;45.306;20.448;2023-04-01T01:54:57;384.10;2329.60
57030;DHT22;42920;45.306;20.448;2023-04-01T01:57:29;384.00;2329.60
57030;DHT22;42920;45.306;20.448;2023-04-01T02:00:06;384.00;2329.60
57030;DHT22;42920;45.306;20.448;2023-04-01T02:02:40;384.00;2329.60
57030;DHT22;42920;45.306;20.448;2023-04-01T02:05:09;359.30;2329.60
57030;DHT22;42920;45.306;20.448;2023-04-01T02:07:37;359.30;2329.60
57030;DHT22;42920;45.306;20.448;2023-04-01T02:10:05;359.30;2329.60
57030;DHT22;42920;45.306;20.448;2023-04-01T02:12:33;359.20;2329.60
57030;DHT22;42920;45.306;20.448;2023-04-01T02:15:11;359.20;2329.60
57030;DHT22;42920;45.306;20.448;2023-04-01T02:17:42;359.20;2329.60
57030;DHT22;42920;45.306;20.448;2023-04-01T02:20:13;359.10;2329.60
57030;DHT22;42920;45.306;20.448;2023-04-01T02:22:44;359.10;2329.60
57030;DHT22;42920;45.306;20.448;2023-04-01T02:25:19;359.10;2329.60
57030;DHT22;42920;45.306;20.448;2023-04-01T02:27:46;359.10;2329.60
57030;DHT22;42920;45.306;20.448;2023-04-01T02:30:14;359.00;2329.60
57030;DHT22;42920;45.306;20.448;2023-04-01T02:32:41;359.00;2329.60
57030;DHT22;42920;45.306;20.448;2023-04-01T02:35:11;359.00;2329.60
57030;DHT22;42920;45.306;20.448;2023-04-01T02:37:39;359.00;2329.60
57030;DHT22;42920;45.306;20.448;2023-04-01T02:40:08;359.00;2329.60
57030;DHT22;42920;45.306;20.448;2023-04-01T02:42:35;359.00;2329.60
57030;DHT22;42920;45.306;20.448;2023-04-01T02:45:01;359.00;2329.60
57030;DHT22;42920;45.306;20.448;2023-04-01T02:47:27;359.00;2329.60
57030;DHT22;42920;45.306;20.448;2023-04-01T02:49:53;359.00;2329.60
57030;DHT22;42920;45.306;20.448;2023-04-01T02:52:27;358.90;2329.60
57030;DHT22;42920;45.306;20.448;2023-04-01T02:54:53;358.90;2329.60
57030;DHT22;42920;45.306;20.448;2023-04-01T02:57:19;358.80;2329.60
57030;DHT22;42920;45.306;20.448;2023-04-01T02:59:45;358.80;2329.60
57030;DHT22;42920;45.306;20.448;2023-04-01T03:02:11;358.70;2329.60
57030;DHT22;42920;45.306;20.448;2023-04-01T03:04:36;358.80;2329.60
57030;DHT22;42920;45.306;20.448;2023-04-01T03:07:02;358.70;2329.60
57030;DHT22;42920;45.306;20.448;2023-04-01T03:09:28;358.80;2329.60
57030;DHT22;42920;45.306;20.448;2023-04-01T03:11:54;358.70;2329.60
57030;DHT22;42920;45.306;20.448;2023-04-01T03:14:20;358.70;2329.60
57030;DHT22;42920;45.306;20.448;2023-04-01T03:16:46;358.70;2329.60
57030;DHT22;42920;45.306;20.448;2023-04-01T03:19:11;358.80;2329.60
57030;DHT22;42920;45.306;20.448;2023-04-01T03:21:37;358.80;2329.60
57030;DHT22;42920;45.306;20.448;2023-04-01T03:24:03;358.80;2329.60
57030;DHT22;42920;45.306;20.448;2023-04-01T03:26:29;358.70;2329.60
57030;DHT22;42920;45.306;20.448;2023-04-01T03:28:55;358.70;2329.60
57030;DHT22;42920;45.306;20.448;2023-04-01T03:31:21;358.70;2329.60
57030;DHT22;42920;45.306;20.448;2023-04-01T03:33:46;358.70;2329.60
57030;DHT22;42920;45.306;20.448;2023-04-01T03:36:13;358.80;2329.60
57030;DHT22;42920;45.306;20.448;2023-04-01T03:38:40;358.80;2329.60
57030;DHT22;42920;45.306;20.448;2023-04-01T03:41:06;358.70;2329.60
57030;DHT22;42920;45.306;20.448;2023-04-01T03:43:32;358.70;2329.60
57030;DHT22;42920;45.306;20.448;2023-04-01T03:45:58;358.70;2329.60
57030;DHT22;42920;45.306;20.448;2023-04-01T03:48:25;358.70;2329.60
57030;DHT22;42920;45.306;20.448;2023-04-01T03:50:51;358.80;2329.60
57030;DHT22;42920;45.306;20.448;2023-04-01T03:53:17;358.70;2329.60
57030;DHT22;42920;45.306;20.448;2023-04-01T03:55:43;358.60;2329.60
57030;DHT22;42920;45.306;20.448;2023-04-01T03:58:09;358.70;2329.60
57030;DHT22;42920;45.306;20.448;2023-04-01T04:00:35;358.70;2329.60
57030;DHT22;42920;45.306;20.448;2023-04-01T04:03:01;358.60;2329.60
57030;DHT22;42920;45.306;20.448;2023-04-01T04:05:27;358.60;2329.60
57030;DHT22;42920;45.306;20.448;2023-04-01T04:07:53;358.70;2329.60
57030;DHT22;42920;45.306;20.448;2023-04-01T04:10:20;358.70;2329.60
57030;DHT22;42920;45.306;20.448;2023-04-01T04:12:49;358.70;2329.60
57030;DHT22;42920;45.306;20.448;2023-04-01T04:15:15;358.60;2329.60
57030;DHT22;42920;45.306;20.448;2023-04-01T04:17:41;358.70;2329.60
57030;DHT22;42920;45.306;20.448;2023-04-01T04:20:07;358.50;2329.60
57030;DHT22;42920;45.306;20.448;2023-04-01T04:22:34;358.80;2329.60
57030;DHT22;42920;45.306;20.448;2023-04-01T04:24:59;358.70;2329.60
57030;DHT22;42920;45.306;20.448;2023-04-01T04:27:25;358.70;2329.60
57030;DHT22;42920;45.306;20.448;2023-04-01T04:29:51;358.70;2329.60
57030;DHT22;42920;45.306;20.448;2023-04-01T04:32:17;358.70;2329.60
57030;DHT22;42920;45.306;20.448;2023-04-01T04:34:42;358.60;2329.60
57030;DHT22;42920;45.306;20.448;2023-04-01T04:37:08;358.50;2329.60
57030;DHT22;42920;45.306;20.448;2023-04-01T04:39:34;358.60;2329.60
57030;DHT22;42920;45.306;20.448;2023-04-01T04:41:59;358.70;2329.60
57030;DHT22;42920;45.306;20.448;2023-04-01T04:44:25;358.60;2329.60
57030;DHT22;42920;45.306;20.448;2023-04-01T04:46:51;358.50;2329.60
57030;DHT22;42920;45.306;20.448;2023-04-01T04:49:17;358.50;2329.60
57030;DHT22;42920;45.306;20.448;2023-04-01T04:51:42;358.50;2329.60
57030;DHT22;42920;45.306;20.448;2023-04-01T04:54:08;358.50;2329.60
57030;DHT22;42920;45.306;20.448;2023-04-01T04:56:34;358.50;2329.60
57030;DHT22;42920;45.306;20.448;2023-04-01T04:59:01;358.40;2329.60
57030;DHT22;42920;45.306;20.448;2023-04-01T05:01:27;358.40;2329.60
57030;DHT22;42920;45.306;20.448;2023-04-01T05:03:53;358.50;2329.60
57030;DHT22;42920;45.306;20.448;2023-04-01T05:06:19;333.70;2329.60
57030;DHT22;42920;45.306;20.448;2023-04-01T05:08:45;333.70;2329.60
57030;DHT22;42920;45.306;20.448;2023-04-01T05:11:19;358.40;2329.60
57030;DHT22;42920;45.306;20.448;2023-04-01T05:13:46;358.50;2329.60
57030;DHT22;42920;45.306;20.448;2023-04-01T05:16:18;358.50;2329.60
57030;DHT22;42920;45.306;20.448;2023-04-01T05:18:44;358.40;2329.60
57030;DHT22;42920;45.306;20.448;2023-04-01T05:21:12;333.70;2329.60
57030;DHT22;42920;45.306;20.448;2023-04-01T05:23:38;333.60;2329.60
57030;DHT22;42920;45.306;20.448;2023-04-01T05:26:06;333.70;2329.60
57030;DHT22;42920;45.306;20.448;2023-04-01T05:28:32;333.60;2329.60
57030;DHT22;42920;45.306;20.448;2023-04-01T05:30:59;333.70;2329.60
57030;DHT22;42920;45.306;20.448;2023-04-01T05:33:26;333.70;2329.60
57030;DHT22;42920;45.306;20.448;2023-04-01T05:35:52;333.70;2329.60
57030;DHT22;42920;45.306;20.448;2023-04-01T05:38:18;333.40;2329.60
57030;DHT22;42920;45.306;20.448;2023-04-01T05:40:44;333.60;2329.60
57030;DHT22;42920;45.306;20.448;2023-04-01T05:43:10;333.60;2329.60
57030;DHT22;42920;45.306;20.448;2023-04-01T05:45:35;333.70;2329.60
57030;DHT22;42920;45.306;20.448;2023-04-01T05:48:02;333.60;2329.60
57030;DHT22;42920;45.306;20.448;2023-04-01T05:50:27;333.50;2329.60
57030;DHT22;42920;45.306;20.448;2023-04-01T05:52:53;333.50;2329.60
57030;DHT22;42920;45.306;20.448;2023-04-01T05:55:19;333.60;2329.60
57030;DHT22;42920;45.306;20.448;2023-04-01T05:57:45;333.70;2329.60
57030;DHT22;42920;45.306;20.448;2023-04-01T06:00:12;333.70;2329.60
57030;DHT22;42920;45.306;20.448;2023-04-01T06:02:38;333.70;2329.60
57030;DHT22;42920;45.306;20.448;2023-04-01T06:07:36;333.70;2329.60
57030;DHT22;42920;45.306;20.448;2023-04-01T06:10:05;333.70;2329.60
57030;DHT22;42920;45.306;20.448;2023-04-01T06:13:03;358.40;2329.60
57030;DHT22;42920;45.306;20.448;2023-04-01T06:18:59;358.40;2329.60
57030;DHT22;42920;45.306;20.448;2023-04-01T06:27:47;333.70;2329.60
57030;DHT22;42920;45.306;20.448;2023-04-01T06:41:26;333.70;2329.60
57030;DHT22;42920;45.306;20.448;2023-04-01T06:46:58;333.60;2329.60
57030;DHT22;42920;45.306;20.448;2023-04-01T06:57:47;333.50;2329.60
57030;DHT22;42920;45.306;20.448;2023-04-01T07:00:29;333.50;2329.60
57030;DHT22;42920;45.306;20.448;2023-04-01T07:06:02;333.40;2329.60
57030;DHT22;42920;45.306;20.448;2023-04-01T07:08:29;333.40;2329.60
57030;DHT22;42920;45.306;20.448;2023-04-01T07:11:04;333.40;2329.60
57030;DHT22;42920;45.306;20.448;2023-04-01T07:13:39;333.50;2329.60
57030;DHT22;42920;45.306;20.448;2023-04-01T07:16:19;333.50;2329.60
57030;DHT22;42920;45.306;20.448;2023-04-01T07:21:27;333.50;2329.60
57030;DHT22;42920;45.306;20.448;2023-04-01T07:23:59;333.70;2329.60
57030;DHT22;42920;45.306;20.448;2023-04-01T07:26:26;333.70;2329.60
57030;DHT22;42920;45.306;20.448;2023-04-01T07:28:53;333.70;2329.60
57030;DHT22;42920;45.306;20.448;2023-04-01T07:34:28;333.70;2329.60
57030;DHT22;42920;45.306;20.448;2023-04-01T07:37:12;333.70;2329.60
57030;DHT22;42920;45.306;20.448;2023-04-01T07:45:23;358.50;2329.60
57030;DHT22;42920;45.306;20.448;2023-04-01T07:51:03;358.50;2329.60
57030;DHT22;42920;45.306;20.448;2023-04-01T07:53:49;358.50;2329.60
57030;DHT22;42920;45.306;20.448;2023-04-01T07:56:39;358.50;2329.60
57030;DHT22;42920;45.306;20.448;2023-04-01T07:59:31;358.50;2329.60
57030;DHT22;42920;45.306;20.448;2023-04-01T08:02:24;358.50;2329.60
57030;DHT22;42920;45.306;20.448;2023-04-01T08:04:57;358.40;2329.60
57030;DHT22;42920;45.306;20.448;2023-04-01T08:20:52;333.70;2329.60
57030;DHT22;42920;45.306;20.448;2023-04-01T08:23:32;333.60;2329.60
57030;DHT22;42920;45.306;20.448;2023-04-01T08:28:43;333.60;1996.80
57030;DHT22;42920;45.306;20.448;2023-04-01T08:31:18;333.50;2329.60
57030;DHT22;42920;45.306;20.448;2023-04-01T08:33:47;333.50;2073.60
57030;DHT22;42920;45.306;20.448;2023-04-01T08:36:20;333.50;1971.20
57030;DHT22;42920;45.306;20.448;2023-04-01T08:38:54;333.50;2329.60
57030;DHT22;42920;45.306;20.448;2023-04-01T08:56:34;332.90;2329.60
57030;DHT22;42920;45.306;20.448;2023-04-01T08:59:10;308.10;2278.40
57030;DHT22;42920;45.306;20.448;2023-04-01T09:10:08;308.10;2278.40
57030;DHT22;42920;45.306;20.448;2023-04-01T09:27:10;308.10;2304.00
57030;DHT22;42920;45.306;20.448;2023-04-01T09:30:59;308.10;2304.00
57030;DHT22;42920;45.306;20.448;2023-04-01T09:33:29;332.80;2329.60
57030;DHT22;42920;45.306;20.448;2023-04-01T09:35:50;332.80;2329.60
57030;DHT22;42920;45.306;20.448;2023-04-01T09:38:30;332.80;2329.60
57030;DHT22;42920;45.306;20.448;2023-04-01T09:46:37;332.80;2329.60
57030;DHT22;42920;45.306;20.448;2023-04-01T10:06:02;308.00;2176.00
57030;DHT22;42920;45.306;20.448;2023-04-01T10:24:51;307.90;2304.00
57030;DHT22;42920;45.306;20.448;2023-04-01T10:27:40;308.00;2304.00
57030;DHT22;42920;45.306;20.448;2023-04-01T10:33:16;308.10;2124.80
57030;DHT22;42920;45.306;20.448;2023-04-01T10:58:38;308.00;2304.00
57030;DHT22;42920;45.306;20.448;2023-04-01T11:26:57;332.80;2022.40
57030;DHT22;42920;45.306;20.448;2023-04-01T11:40:31;332.90;2329.60
57030;DHT22;42920;45.306;20.448;2023-04-01T12:13:55;308.10;2304.00
57030;DHT22;42920;45.306;20.448;2023-04-01T12:16:28;308.00;2304.00
57030;DHT22;42920;45.306;20.448;2023-04-01T12:21:38;308.00;2304.00
57030;DHT22;42920;45.306;20.448;2023-04-01T12:27:29;307.90;2304.00
57030;DHT22;42920;45.306;20.448;2023-04-01T12:35:58;307.90;2304.00
57030;DHT22;42920;45.306;20.448;2023-04-01T12:38:39;308.00;2304.00
57030;DHT22;42920;45.306;20.448;2023-04-01T12:44:27;308.10;2304.00
57030;DHT22;42920;45.306;20.448;2023-04-01T12:47:10;308.00;2304.00
57030;DHT22;42920;45.306;20.448;2023-04-01T12:58:15;332.90;2329.60
57030;DHT22;42920;45.306;20.448;2023-04-01T13:26:07;332.80;2329.60
57030;DHT22;42920;45.306;20.448;2023-04-01T13:28:35;332.90;2329.60
57030;DHT22;42920;45.306;20.448;2023-04-01T13:31:34;332.90;2329.60
57030;DHT22;42920;45.306;20.448;2023-04-01T13:42:59;332.90;2329.60
57030;DHT22;42920;45.306;20.448;2023-04-01T13:45:35;332.80;2304.00
57030;DHT22;42920;45.306;20.448;2023-04-01T13:50:59;332.90;2329.60
57030;DHT22;42920;45.306;20.448;2023-04-01T13:56:37;332.90;2329.60
57030;DHT22;42920;45.306;20.448;2023-04-01T14:13:59;333.00;2329.60
57030;DHT22;42920;45.306;20.448;2023-04-01T14:23:00;333.00;2329.60
57030;DHT22;42920;45.306;20.448;2023-04-01T14:28:49;333.10;2329.60
57030;DHT22;42920;45.306;20.448;2023-04-01T14:43:00;333.10;2329.60
57030;DHT22;42920;45.306;20.448;2023-04-01T14:48:25;333.40;2329.60
57030;DHT22;42920;45.306;20.448;2023-04-01T14:50:56;333.10;2329.60
57030;DHT22;42920;45.306;20.448;2023-04-01T14:58:16;333.10;2329.60
57030;DHT22;42920;45.306;20.448;2023-04-01T15:01:11;333.10;2329.60
57030;DHT22;42920;45.306;20.448;2023-04-01T15:06:38;333.20;2329.60
57030;DHT22;42920;45.306;20.448;2023-04-01T15:17:33;333.20;2329.60
57030;DHT22;42920;45.306;20.448;2023-04-01T15:22:54;333.20;2329.60
57030;DHT22;42920;45.306;20.448;2023-04-01T15:28:30;333.20;2201.60
57030;DHT22;42920;45.306;20.448;2023-04-01T15:31:14;333.20;2329.60
57030;DHT22;42920;45.306;20.448;2023-04-01T15:36:41;333.20;2329.60
57030;DHT22;42920;45.306;20.448;2023-04-01T15:52:40;333.10;2329.60
57030;DHT22;42920;45.306;20.448;2023-04-01T15:55:15;333.10;2329.60
57030;DHT22;42920;45.306;20.448;2023-04-01T16:00:49;333.10;2329.60
57030;DHT22;42920;45.306;20.448;2023-04-01T16:06:11;333.00;2329.60
57030;DHT22;42920;45.306;20.448;2023-04-01T16:19:51;333.00;2329.60
57030;DHT22;42920;45.306;20.448;2023-04-01T16:22:23;332.90;2329.60
57030;DHT22;42920;45.306;20.448;2023-04-01T16:27:40;332.90;2329.60
57030;DHT22;42920;45.306;20.448;2023-04-01T16:30:38;332.90;2329.60
57030;DHT22;42920;45.306;20.448;2023-04-01T16:41:49;332.80;2329.60
57030;DHT22;42920;45.306;20.448;2023-04-01T16:44:26;308.10;2304.00
57030;DHT22;42920;45.306;20.448;2023-04-01T16:47:08;308.10;2304.00
57030;DHT22;42920;45.306;20.448;2023-04-01T16:49:44;308.10;2304.00
57030;DHT22;42920;45.306;20.448;2023-04-01T16:52:15;308.10;2304.00
57030;DHT22;42920;45.306;20.448;2023-04-01T16:55:20;308.10;2304.00
57030;DHT22;42920;45.306;20.448;2023-04-01T16:57:56;308.10;2304.00
57030;DHT22;42920;45.306;20.448;2023-04-01T17:00:41;308.10;2304.00
57030;DHT22;42920;45.306;20.448;2023-04-01T17:03:21;308.10;2304.00
57030;DHT22;42920;45.306;20.448;2023-04-01T17:14:48;308.00;2304.00
57030;DHT22;42920;45.306;20.448;2023-04-01T17:17:34;308.00;2304.00
57030;DHT22;42920;45.306;20.448;2023-04-01T17:33:48;308.00;2304.00
57030;DHT22;42920;45.306;20.448;2023-04-01T17:36:51;308.00;2304.00
57030;DHT22;42920;45.306;20.448;2023-04-01T17:42:09;307.90;2304.00
57030;DHT22;42920;45.306;20.448;2023-04-01T17:53:09;307.90;2304.00
57030;DHT22;42920;45.306;20.448;2023-04-01T17:55:55;307.90;2304.00
57030;DHT22;42920;45.306;20.448;2023-04-01T18:01:30;307.90;2304.00
57030;DHT22;42920;45.306;20.448;2023-04-01T18:04:10;307.90;2304.00
57030;DHT22;42920;45.306;20.448;2023-04-01T18:17:25;307.90;2304.00
57030;DHT22;42920;45.306;20.448;2023-04-01T18:20:47;307.90;2304.00
57030;DHT22;42920;45.306;20.448;2023-04-01T18:25:41;307.80;2304.00
57030;DHT22;42920;45.306;20.448;2023-04-01T18:31:35;307.80;2304.00
57030;DHT22;42920;45.306;20.448;2023-04-01T18:34:11;307.80;2304.00
57030;DHT22;42920;45.306;20.448;2023-04-01T18:36:47;307.80;2304.00
57030;DHT22;42920;45.306;20.448;2023-04-01T18:42:33;307.80;2304.00
57030;DHT22;42920;45.306;20.448;2023-04-01T18:45:10;307.70;2304.00
57030;DHT22;42920;45.306;20.448;2023-04-01T18:47:47;307.70;2304.00
57030;DHT22;42920;45.306;20.448;2023-04-01T18:50:36;307.70;2304.00
57030;DHT22;42920;45.306;20.448;2023-04-01T18:55:39;307.70;2304.00
57030;DHT22;42920;45.306;20.448;2023-04-01T19:06:29;307.80;2304.00
57030;DHT22;42920;45.306;20.448;2023-04-01T19:09:09;307.80;2304.00
57030;DHT22;42920;45.306;20.448;2023-04-01T19:14:19;307.80;2304.00
57030;DHT22;42920;45.306;20.448;2023-04-01T19:16:58;307.80;2304.00
57030;DHT22;42920;45.306;20.448;2023-04-01T19:28:00;307.60;2304.00
57030;DHT22;42920;45.306;20.448;2023-04-01T19:45:02;307.40;2304.00
57030;DHT22;42920;45.306;20.448;2023-04-01T19:48:02;307.30;2304.00
57030;DHT22;42920;45.306;20.448;2023-04-01T19:53:29;307.40;2304.00
57030;DHT22;42920;45.306;20.448;2023-04-01T19:56:07;307.30;2304.00
57030;DHT22;42920;45.306;20.448;2023-04-01T20:01:10;307.30;2304.00
57030;DHT22;42920;45.306;20.448;2023-04-01T20:03:42;307.30;2304.00
57030;DHT22;42920;45.306;20.448;2023-04-01T20:06:28;307.30;2304.00
57030;DHT22;42920;45.306;20.448;2023-04-01T20:14:35;307.20;2304.00
57030;DHT22;42920;45.306;20.448;2023-04-01T20:17:07;307.20;2304.00
57030;DHT22;42920;45.306;20.448;2023-04-01T20:25:30;282.40;2278.40
57030;DHT22;42920;45.306;20.448;2023-04-01T20:33:37;282.40;2278.40
57030;DHT22;42920;45.306;20.448;2023-04-01T20:36:36;282.40;2278.40
57030;DHT22;42920;45.306;20.448;2023-04-01T20:44:20;282.30;2278.40
57030;DHT22;42920;45.306;20.448;2023-04-01T21:02:40;282.30;2278.40
57030;DHT22;42920;45.306;20.448;2023-04-01T21:11:18;282.20;2278.40
57030;DHT22;42920;45.306;20.448;2023-04-01T21:19:19;282.20;2278.40
57030;DHT22;42920;45.306;20.448;2023-04-01T21:36:24;282.10;2278.40
57030;DHT22;42920;45.306;20.448;2023-04-01T21:45:06;282.10;2278.40
57030;DHT22;42920;45.306;20.448;2023-04-01T21:50:42;282.10;2278.40
57030;DHT22;42920;45.306;20.448;2023-04-01T22:07:21;281.90;2278.40
57030;DHT22;42920;45.306;20.448;2023-04-01T22:18:32;282.00;2278.40
57030;DHT22;42920;45.306;20.448;2023-04-01T22:29:26;281.90;2278.40
57030;DHT22;42920;45.306;20.448;2023-04-01T22:32:07;281.90;2278.40
57030;DHT22;42920;45.306;20.448;2023-04-01T22:37:17;256.90;2252.80
57030;DHT22;42920;45.306;20.448;2023-04-01T22:40:00;256.90;2252.80
57030;DHT22;42920;45.306;20.448;2023-04-01T22:42:43;256.90;2252.80
57030;DHT22;42920;45.306;20.448;2023-04-01T22:48:41;256.70;2252.80
57030;DHT22;42920;45.306;20.448;2023-04-01T22:51:19;256.70;2252.80
57030;DHT22;42920;45.306;20.448;2023-04-01T22:57:04;256.70;2252.80
57030;DHT22;42920;45.306;20.448;2023-04-01T22:59:46;256.80;2252.80
57030;DHT22;42920;45.306;20.448;2023-04-01T23:02:29;256.80;2252.80
57030;DHT22;42920;45.306;20.448;2023-04-01T23:04:59;256.90;2252.80
57030;DHT22;42920;45.306;20.448;2023-04-01T23:07:45;256.80;2252.80
57030;DHT22;42920;45.306;20.448;2023-04-01T23:12:47;256.90;2252.80
57030;DHT22;42920;45.306;20.448;2023-04-01T23:15:15;256.90;2252.80
57030;DHT22;42920;45.306;20.448;2023-04-01T23:20:56;256.90;2252.80
57030;DHT22;42920;45.306;20.448;2023-04-01T23:28:56;281.60;2278.40
57030;DHT22;42920;45.306;20.448;2023-04-01T23:31:40;256.90;2252.80
57030;DHT22;42920;45.306;20.448;2023-04-01T23:34:21;256.90;2252.80
57030;DHT22;42920;45.306;20.448;2023-04-01T23:36:50;256.90;2252.80
57030;DHT22;42920;45.306;20.448;2023-04-01T23:39:36;256.90;2252.80
57030;DHT22;42920;45.306;20.448;2023-04-01T23:42:12;256.90;2252.80
57030;DHT22;42920;45.306;20.448;2023-04-01T23:44:39;256.90;2252.80
57030;DHT22;42920;45.306;20.448;2023-04-01T23:47:08;256.80;2252.80
57030;DHT22;42920;45.306;20.448;2023-04-01T23:49:40;256.80;2252.80
57030;DHT22;42920;45.306;20.448;2023-04-01T23:52:24;256.70;2252.80
57030;DHT22;42920;45.306;20.448;2023-04-01T23:55:15;256.60;2252.80
